createdAt,value
2023-02-11T00:00:04.915Z,102674.00
2023-02-11T00:01:06.737Z,102670.67
2023-02-11T00:02:08.589Z,102662.23
2023-02-11T00:03:10.809Z,102669.12
2023-02-11T00:04:12.574Z,102659.67
2023-02-11T00:05:14.400Z,102659.67
2023-02-11T00:06:16.479Z,102651.73
2023-02-11T00:07:18.279Z,102652.50
2023-02-11T00:08:20.112Z,102654.17
2023-02-11T00:09:21.914Z,102650.69
2023-02-11T00:10:23.710Z,102640.45
2023-02-11T00:11:25.533Z,102642.88
2023-02-11T00:12:27.325Z,102633.44
2023-02-11T00:13:29.548Z,102634.06
2023-02-11T00:14:32.370Z,102640.73
2023-02-11T00:15:34.203Z,102646.86
2023-02-11T00:16:36.152Z,102640.07
2023-02-11T00:17:38.577Z,102640.07
2023-02-11T00:18:40.464Z,102639.94
2023-02-11T00:19:42.243Z,102639.05
2023-02-11T00:20:44.069Z,102636.37
2023-02-11T00:21:45.849Z,102638.80
2023-02-11T00:22:47.646Z,102645.56
2023-02-11T00:23:49.481Z,102638.67
2023-02-11T00:24:51.302Z,102636.87
2023-02-11T00:25:53.280Z,102637.63
2023-02-11T00:26:55.204Z,102640.06
2023-02-11T00:27:57.031Z,102635.73
2023-02-11T00:28:58.859Z,102627.00
2023-02-11T00:30:00.698Z,102626.13
2023-02-11T00:31:03.162Z,102627.66
2023-02-11T00:32:05.053Z,102636.10
2023-02-11T00:33:06.792Z,102629.18
2023-02-11T00:34:08.648Z,102620.61
2023-02-11T00:35:10.462Z,102617.17
2023-02-11T00:36:13.286Z,102610.13
2023-02-11T00:37:15.064Z,102605.89
2023-02-11T00:38:16.862Z,102596.31
2023-02-11T00:39:18.706Z,102608.19
2023-02-11T00:40:20.514Z,102611.67
2023-02-11T00:41:22.306Z,102607.05
2023-02-11T00:42:24.112Z,102606.42
2023-02-11T00:43:25.901Z,102602.19
2023-02-11T00:44:27.750Z,102605.50
2023-02-11T00:45:29.562Z,102601.17
2023-02-11T00:46:31.407Z,102605.50
2023-02-11T00:47:33.182Z,102606.42
2023-02-11T00:48:34.948Z,102612.42
2023-02-11T00:49:36.805Z,102615.74
2023-02-11T00:50:38.609Z,102607.17
2023-02-11T00:51:40.393Z,102608.98
2023-02-11T00:52:42.215Z,102606.30
2023-02-11T00:53:44.035Z,102607.05
2023-02-11T00:54:45.869Z,102604.49
2023-02-11T00:55:47.901Z,102609.61
2023-02-11T00:56:49.951Z,102607.05
2023-02-11T00:57:51.761Z,102601.94
2023-02-11T00:58:53.562Z,102601.94
2023-02-11T00:59:55.403Z,102594.88
2023-02-11T01:00:57.223Z,102607.55
2023-02-11T01:01:59.028Z,102599.11
2023-02-11T01:03:00.839Z,102604.23
2023-02-11T01:04:02.655Z,102600.00
2023-02-11T01:05:04.535Z,102607.67
2023-02-11T01:06:06.409Z,102604.99
2023-02-11T01:07:08.216Z,102612.80
2023-02-11T01:08:10.008Z,102607.80
2023-02-11T01:09:11.810Z,102602.56
2023-02-11T01:10:13.667Z,102608.56
2023-02-11T01:11:15.458Z,102610.23
2023-02-11T01:12:17.256Z,102606.66
2023-02-11T01:13:19.047Z,102608.44
2023-02-11T01:14:20.858Z,102604.23
2023-02-11T01:15:22.724Z,102602.30
2023-02-11T01:16:24.837Z,102595.38
2023-02-11T01:17:26.623Z,102598.73
2023-02-11T01:18:28.438Z,102591.81
2023-02-11T01:19:30.243Z,102588.23
2023-02-11T01:20:32.201Z,102585.55
2023-02-11T01:21:34.025Z,102578.76
2023-02-11T01:22:35.829Z,102581.19
2023-02-11T01:23:37.661Z,102571.71
2023-02-11T01:24:39.449Z,102581.19
2023-02-11T01:25:41.278Z,102575.19
2023-02-11T01:26:43.174Z,102581.95
2023-02-11T01:27:44.975Z,102579.39
2023-02-11T01:28:46.784Z,102580.30
2023-02-11T01:29:48.576Z,102576.83
2023-02-11T01:30:50.453Z,102583.75
2023-02-11T01:31:52.261Z,102579.26
2023-02-11T01:32:54.042Z,102577.62
2023-02-11T01:33:55.859Z,102583.49
2023-02-11T01:34:57.645Z,102583.49
2023-02-11T01:35:59.483Z,102585.16
2023-02-11T01:37:01.290Z,102582.73
2023-02-11T01:38:03.081Z,102585.30
2023-02-11T01:39:04.895Z,102583.63
2023-02-11T01:40:06.996Z,102588.87
2023-02-11T01:41:08.828Z,102581.95
2023-02-11T01:42:10.638Z,102586.17
2023-02-11T01:43:12.439Z,102584.50
2023-02-11T01:44:14.230Z,102585.30
2023-02-11T01:45:16.044Z,102581.95
2023-02-11T01:46:18.387Z,102586.05
2023-02-11T01:47:20.205Z,102584.38
2023-02-11T01:48:21.998Z,102587.06
2023-02-11T01:49:23.835Z,102588.61
2023-02-11T01:50:25.618Z,102583.49
2023-02-11T01:51:27.487Z,102580.05
2023-02-11T01:52:29.276Z,102579.26
2023-02-11T01:53:31.090Z,102582.86
2023-02-11T01:54:32.896Z,102584.63
2023-02-11T01:55:34.698Z,102572.76
2023-02-11T01:56:36.524Z,102579.77
2023-02-11T01:57:38.319Z,102578.00
2023-02-11T01:58:40.113Z,102577.21
2023-02-11T01:59:41.923Z,102582.20
2023-02-11T02:00:43.728Z,102578.00
2023-02-11T02:01:45.662Z,102579.77
2023-02-11T02:02:47.459Z,102582.33
2023-02-11T02:03:49.310Z,102582.33
2023-02-11T02:04:51.068Z,102577.21
2023-02-11T02:05:53.099Z,102576.33
2023-02-11T02:06:55.074Z,102573.77
2023-02-11T02:07:56.880Z,102574.53
2023-02-11T02:08:58.675Z,102580.56
2023-02-11T02:10:00.476Z,102580.56
2023-02-11T02:11:02.270Z,102585.02
2023-02-11T02:12:04.115Z,102591.05
2023-02-11T02:13:05.918Z,102590.27
2023-02-11T02:14:07.707Z,102591.19
2023-02-11T02:15:14.986Z,102586.95
2023-02-11T02:16:16.960Z,102588.63
2023-02-11T02:17:18.852Z,102590.27
2023-02-11T02:18:20.663Z,102591.19
2023-02-11T02:19:22.456Z,102590.39
2023-02-11T02:20:24.273Z,102592.06
2023-02-11T02:21:26.060Z,102593.74
2023-02-11T02:22:27.900Z,102595.38
2023-02-11T02:23:29.699Z,102591.19
2023-02-11T02:24:31.507Z,102594.50
2023-02-11T02:25:33.291Z,102594.50
2023-02-11T02:26:35.091Z,102585.81
2023-02-11T02:27:36.914Z,102586.70
2023-02-11T02:28:38.718Z,102589.13
2023-02-11T02:29:40.518Z,102592.31
2023-02-11T02:30:42.356Z,102584.38
2023-02-11T02:31:44.161Z,102591.92
2023-02-11T02:32:45.969Z,102587.59
2023-02-11T02:33:47.782Z,102585.03
2023-02-11T02:34:49.580Z,102590.02
2023-02-11T02:35:51.665Z,102590.02
2023-02-11T02:36:53.491Z,102590.78
2023-02-11T02:37:55.334Z,102576.94
2023-02-11T02:38:57.138Z,102587.97
2023-02-11T02:39:58.938Z,102573.38
2023-02-11T02:41:00.740Z,102575.80
2023-02-11T02:42:02.538Z,102579.11
2023-02-11T02:43:04.371Z,102580.78
2023-02-11T02:44:06.180Z,102579.91
2023-02-11T02:45:07.996Z,102574.00
2023-02-11T02:46:10.104Z,102577.60
2023-02-11T02:47:11.913Z,102577.60
2023-02-11T02:48:13.760Z,102582.59
2023-02-11T02:49:15.564Z,102579.91
2023-02-11T02:50:17.478Z,102572.86
2023-02-11T02:51:19.272Z,102577.84
2023-02-11T02:52:21.092Z,102578.47
2023-02-11T02:53:22.955Z,102576.70
2023-02-11T02:54:24.769Z,102573.88
2023-02-11T02:55:26.573Z,102573.88
2023-02-11T02:56:28.484Z,102577.32
2023-02-11T02:57:30.291Z,102581.69
2023-02-11T02:58:32.131Z,102579.13
2023-02-11T02:59:33.935Z,102586.14
2023-02-11T03:00:36.101Z,102583.58
2023-02-11T03:01:37.958Z,102580.14
2023-02-11T03:02:39.770Z,102581.02
2023-02-11T03:03:41.655Z,102575.02
2023-02-11T03:04:43.418Z,102582.70
2023-02-11T03:05:47.545Z,102575.78
2023-02-11T03:06:49.440Z,102571.45
2023-02-11T03:07:51.253Z,102568.77
2023-02-11T03:08:53.097Z,102571.32
2023-02-11T03:09:54.899Z,102565.28
2023-02-11T03:10:57.020Z,102560.05
2023-02-11T03:11:58.846Z,102560.05
2023-02-11T03:13:00.624Z,102565.95
2023-02-11T03:14:02.468Z,102559.03
2023-02-11T03:15:05.311Z,102563.26
2023-02-11T03:16:07.235Z,102563.26
2023-02-11T03:17:09.017Z,102559.03
2023-02-11T03:18:10.829Z,102561.59
2023-02-11T03:19:12.667Z,102559.78
2023-02-11T03:20:14.672Z,102557.23
2023-02-11T03:21:16.474Z,102556.21
2023-02-11T03:22:18.838Z,102558.64
2023-02-11T03:23:20.656Z,102555.03
2023-02-11T03:24:22.610Z,102550.58
2023-02-11T03:25:24.992Z,102558.12
2023-02-11T03:26:26.801Z,102558.87
2023-02-11T03:27:28.613Z,102563.86
2023-02-11T03:28:30.489Z,102567.16
2023-02-11T03:29:32.378Z,102556.05
2023-02-11T03:30:34.270Z,102556.05
2023-02-11T03:31:36.138Z,102560.28
2023-02-11T03:32:37.997Z,102557.73
2023-02-11T03:33:39.896Z,102560.41
2023-02-11T03:34:41.728Z,102562.19
2023-02-11T03:35:43.551Z,102559.63
2023-02-11T03:36:45.357Z,102568.34
2023-02-11T03:37:47.154Z,102566.67
2023-02-11T03:38:48.963Z,102571.92
2023-02-11T03:39:50.814Z,102573.72
2023-02-11T03:40:52.967Z,102578.97
2023-02-11T03:41:55.374Z,102578.97
2023-02-11T03:42:57.183Z,102573.06
2023-02-11T03:43:58.969Z,102579.98
2023-02-11T03:45:00.914Z,102568.87
2023-02-11T03:46:02.743Z,102564.64
2023-02-11T03:47:04.528Z,102573.20
2023-02-11T03:48:06.398Z,102574.87
2023-02-11T03:49:08.764Z,102574.87
2023-02-11T03:50:11.327Z,102573.98
2023-02-11T03:51:13.665Z,102573.98
2023-02-11T03:52:15.488Z,102572.18
2023-02-11T03:53:17.278Z,102569.49
2023-02-11T03:54:19.090Z,102572.80
2023-02-11T03:55:20.928Z,102563.23
2023-02-11T03:56:22.790Z,102566.55
2023-02-11T03:57:24.603Z,102567.03
2023-02-11T03:58:26.387Z,102559.10
2023-02-11T03:59:28.195Z,102564.88
2023-02-11T04:00:30.044Z,102561.89
2023-02-11T04:01:31.892Z,102559.20
2023-02-11T04:02:33.753Z,102558.94
2023-02-11T04:03:35.627Z,102564.19
2023-02-11T04:04:37.470Z,102570.22
2023-02-11T04:05:39.332Z,102573.66
2023-02-11T04:06:41.222Z,102575.33
2023-02-11T04:07:43.578Z,102574.28
2023-02-11T04:08:45.389Z,102575.06
2023-02-11T04:09:47.186Z,102575.81
2023-02-11T04:10:50.458Z,102572.51
2023-02-11T04:11:52.353Z,102579.25
2023-02-11T04:12:54.378Z,102572.51
2023-02-11T04:13:56.334Z,102575.81
2023-02-11T04:14:58.114Z,102567.27
2023-02-11T04:15:59.980Z,102575.06
2023-02-11T04:17:01.768Z,102568.14
2023-02-11T04:18:03.586Z,102571.45
2023-02-11T04:19:05.384Z,102569.03
2023-02-11T04:20:07.510Z,102566.34
2023-02-11T04:21:09.393Z,102566.21
2023-02-11T04:22:11.168Z,102562.77
2023-02-11T04:23:13.569Z,102556.64
2023-02-11T04:24:15.370Z,102566.73
2023-02-11T04:25:17.187Z,102563.13
2023-02-11T04:26:20.242Z,102558.67
2023-02-11T04:27:22.070Z,102568.63
2023-02-11T04:28:23.908Z,102564.00
2023-02-11T04:29:25.667Z,102561.31
2023-02-11T04:30:27.488Z,102555.02
2023-02-11T04:31:29.405Z,102554.13
2023-02-11T04:32:31.244Z,102549.02
2023-02-11T04:33:33.045Z,102549.02
2023-02-11T04:34:34.844Z,102546.47
2023-02-11T04:35:36.659Z,102550.56
2023-02-11T04:36:38.624Z,102546.20
2023-02-11T04:37:40.433Z,102540.08
2023-02-11T04:38:42.228Z,102549.24
2023-02-11T04:39:44.051Z,102552.72
2023-02-11T04:40:45.961Z,102551.80
2023-02-11T04:41:47.789Z,102552.72
2023-02-11T04:42:49.586Z,102547.61
2023-02-11T04:43:51.393Z,102547.73
2023-02-11T04:44:53.194Z,102548.48
2023-02-11T04:45:55.033Z,102549.38
2023-02-11T04:46:56.929Z,102546.07
2023-02-11T04:47:58.727Z,102546.07
2023-02-11T04:49:00.542Z,102544.40
2023-02-11T04:50:02.491Z,102534.97
2023-02-11T04:51:04.307Z,102541.71
2023-02-11T04:52:06.158Z,102537.38
2023-02-11T04:53:07.959Z,102535.45
2023-02-11T04:54:10.356Z,102538.75
2023-02-11T04:55:12.169Z,102544.78
2023-02-11T04:56:14.069Z,102541.45
2023-02-11T04:57:15.910Z,102535.45
2023-02-11T04:58:17.732Z,102548.22
2023-02-11T04:59:19.549Z,102542.23
2023-02-11T05:00:21.510Z,102544.91
2023-02-11T05:01:23.614Z,102544.00
2023-02-11T05:02:25.442Z,102548.36
2023-02-11T05:03:27.242Z,102542.50
2023-02-11T05:04:29.095Z,102550.16
2023-02-11T05:05:30.951Z,102545.19
2023-02-11T05:06:32.738Z,102545.19
2023-02-11T05:07:34.608Z,102542.77
2023-02-11T05:08:36.433Z,102543.64
2023-02-11T05:09:38.236Z,102542.89
2023-02-11T05:10:40.153Z,102548.89
2023-02-11T05:11:41.958Z,102546.47
2023-02-11T05:12:43.771Z,102550.83
2023-02-11T05:13:45.685Z,102550.17
2023-02-11T05:14:47.484Z,102553.00
2023-02-11T05:15:49.616Z,102548.94
2023-02-11T05:16:51.968Z,102549.95
2023-02-11T05:17:53.860Z,102551.00
2023-02-11T05:18:55.667Z,102553.69
2023-02-11T05:19:57.453Z,102547.79
2023-02-11T05:20:59.361Z,102560.70
2023-02-11T05:22:03.451Z,102547.92
2023-02-11T05:23:04.811Z,102546.28
2023-02-11T05:24:06.611Z,102544.48
2023-02-11T05:25:08.419Z,102551.40
2023-02-11T05:26:10.328Z,102550.74
2023-02-11T05:27:12.122Z,102553.30
2023-02-11T05:28:14.025Z,102557.79
2023-02-11T05:29:15.851Z,102551.80
2023-02-11T05:30:17.954Z,102554.48
2023-02-11T05:31:19.751Z,102553.07
2023-02-11T05:32:21.559Z,102548.84
2023-02-11T05:33:23.409Z,102545.53
2023-02-11T05:34:25.304Z,102547.20
2023-02-11T05:35:27.096Z,102545.66
2023-02-11T05:36:29.809Z,102547.60
2023-02-11T05:37:32.447Z,102545.92
2023-02-11T05:38:34.282Z,102544.42
2023-02-11T05:39:36.082Z,102541.20
2023-02-11T05:40:37.976Z,102538.78
2023-02-11T05:41:39.782Z,102540.72
2023-02-11T05:42:41.567Z,102542.77
2023-02-11T05:43:43.402Z,102540.48
2023-02-11T05:44:45.237Z,102541.63
2023-02-11T05:45:47.038Z,102538.57
2023-02-11T05:46:48.931Z,102541.52
2023-02-11T05:47:50.734Z,102543.58
2023-02-11T05:48:52.587Z,102546.52
2023-02-11T05:49:54.394Z,102548.55
2023-02-11T05:50:56.291Z,102543.97
2023-02-11T05:51:58.085Z,102542.55
2023-02-11T05:52:59.887Z,102540.50
2023-02-11T05:54:01.845Z,102540.12
2023-02-11T05:55:03.668Z,102537.03
2023-02-11T05:56:05.952Z,102538.33
2023-02-11T05:57:07.743Z,102533.72
2023-02-11T05:58:09.560Z,102523.98
2023-02-11T05:59:11.482Z,102527.03
2023-02-11T06:00:13.610Z,102523.33
2023-02-11T06:01:15.404Z,102531.52
2023-02-11T06:02:17.229Z,102531.21
2023-02-11T06:03:19.027Z,102531.74
2023-02-11T06:04:20.859Z,102534.00
2023-02-11T06:05:22.659Z,102526.05
2023-02-11T06:06:24.446Z,102525.02
2023-02-11T06:07:26.250Z,102520.49
2023-02-11T06:08:28.061Z,102525.30
2023-02-11T06:09:29.888Z,102531.95
2023-02-11T06:10:31.796Z,102528.19
2023-02-11T06:11:33.579Z,102523.55
2023-02-11T06:12:35.388Z,102523.14
2023-02-11T06:13:37.193Z,102520.28
2023-02-11T06:14:39.015Z,102523.20
2023-02-11T06:15:40.863Z,102517.66
2023-02-11T06:16:42.613Z,102513.89
2023-02-11T06:17:44.439Z,102511.67
2023-02-11T06:18:46.247Z,102506.12
2023-02-11T06:19:48.081Z,102504.03
2023-02-11T06:20:49.876Z,102502.70
2023-02-11T06:21:51.670Z,102504.95
2023-02-11T06:22:53.538Z,102504.53
2023-02-11T06:23:55.335Z,102509.25
2023-02-11T06:25:01.850Z,102509.70
2023-02-11T06:26:00.793Z,102498.09
2023-02-11T06:27:02.594Z,102504.60
2023-02-11T06:28:04.476Z,102498.23
2023-02-11T06:29:06.315Z,102504.63
2023-02-11T06:30:08.421Z,102504.96
2023-02-11T06:31:10.742Z,102506.18
2023-02-11T06:32:29.897Z,102506.52
2023-02-11T06:33:16.205Z,102508.77
2023-02-11T06:34:18.103Z,102503.96
2023-02-11T06:35:19.970Z,102500.95
2023-02-11T06:36:21.853Z,102496.03
2023-02-11T06:37:23.662Z,102498.13
2023-02-11T06:38:25.475Z,102500.15
2023-02-11T06:39:27.285Z,102491.89
2023-02-11T06:40:29.233Z,102492.11
2023-02-11T06:41:31.015Z,102489.86
2023-02-11T06:42:32.833Z,102495.22
2023-02-11T06:43:36.909Z,102490.30
2023-02-11T06:44:38.736Z,102495.77
2023-02-11T06:45:40.562Z,102504.61
2023-02-11T06:46:42.412Z,102502.25
2023-02-11T06:47:44.193Z,102503.36
2023-02-11T06:48:45.988Z,102501.00
2023-02-11T06:49:47.784Z,102515.06
2023-02-11T06:50:49.733Z,102506.68
2023-02-11T06:51:51.534Z,102506.16
2023-02-11T06:52:53.329Z,102508.06
2023-02-11T06:53:55.131Z,102509.16
2023-02-11T06:54:56.925Z,102512.82
2023-02-11T06:55:58.776Z,102512.16
2023-02-11T06:57:00.731Z,102515.71
2023-02-11T06:58:02.523Z,102510.67
2023-02-11T06:59:04.337Z,102513.35
2023-02-11T07:00:06.266Z,102517.72
2023-02-11T07:01:08.085Z,102516.95
2023-02-11T07:02:09.918Z,102520.61
2023-02-11T07:03:11.756Z,102520.61
2023-02-11T07:04:13.656Z,102522.52
2023-02-11T07:05:15.487Z,102517.48
2023-02-11T07:06:17.532Z,102515.89
2023-02-11T07:07:19.333Z,102515.22
2023-02-11T07:08:21.133Z,102499.89
2023-02-11T07:09:22.949Z,102502.56
2023-02-11T07:10:24.770Z,102497.53
2023-02-11T07:11:26.598Z,102495.73
2023-02-11T07:12:28.405Z,102500.98
2023-02-11T07:13:30.210Z,102494.17
2023-02-11T07:14:32.032Z,102493.36
2023-02-11T07:15:33.863Z,102496.85
2023-02-11T07:16:35.833Z,102490.90
2023-02-11T07:17:37.643Z,102485.64
2023-02-11T07:18:39.419Z,102484.87
2023-02-11T07:19:41.231Z,102481.41
2023-02-11T07:20:43.050Z,102469.33
2023-02-11T07:21:44.917Z,102471.02
2023-02-11T07:22:46.818Z,102471.90
2023-02-11T07:23:48.622Z,102468.34
2023-02-11T07:24:50.420Z,102468.91
2023-02-11T07:25:52.461Z,102472.16
2023-02-11T07:26:54.614Z,102465.25
2023-02-11T07:27:56.424Z,102458.41
2023-02-11T07:28:58.879Z,102454.95
2023-02-11T07:30:00.692Z,102461.66
2023-02-11T07:31:02.599Z,102458.98
2023-02-11T07:32:04.525Z,102458.09
2023-02-11T07:33:06.446Z,102460.56
2023-02-11T07:34:08.265Z,102457.00
2023-02-11T07:35:10.122Z,102457.68
2023-02-11T07:36:12.360Z,102453.98
2023-02-11T07:37:14.224Z,102454.58
2023-02-11T07:38:16.023Z,102462.09
2023-02-11T07:39:17.851Z,102461.06
2023-02-11T07:40:19.645Z,102455.81
2023-02-11T07:41:21.814Z,102457.50
2023-02-11T07:42:23.698Z,102452.36
2023-02-11T07:43:25.529Z,102448.10
2023-02-11T07:44:27.351Z,102453.45
2023-02-11T07:45:29.149Z,102442.28
2023-02-11T07:46:31.212Z,102450.11
2023-02-11T07:47:33.219Z,102446.55
2023-02-11T07:48:35.026Z,102443.87
2023-02-11T07:49:36.935Z,102450.67
2023-02-11T07:50:38.704Z,102457.50
2023-02-11T07:51:40.500Z,102463.53
2023-02-11T07:52:42.349Z,102455.92
2023-02-11T07:53:44.776Z,102451.80
2023-02-11T07:54:46.657Z,102445.53
2023-02-11T07:55:48.668Z,102448.00
2023-02-11T07:56:51.315Z,102449.69
2023-02-11T07:57:53.186Z,102442.75
2023-02-11T07:58:55.001Z,102447.01
2023-02-11T07:59:56.819Z,102451.38
2023-02-11T08:00:59.386Z,102440.28
2023-02-11T08:02:01.234Z,102443.98
2023-02-11T08:03:04.909Z,102439.72
2023-02-11T08:04:06.755Z,102440.59
2023-02-11T08:05:08.670Z,102435.34
2023-02-11T08:06:10.986Z,102445.53
2023-02-11T08:07:12.780Z,102440.28
2023-02-11T08:08:14.711Z,102442.95
2023-02-11T08:09:16.550Z,102440.49
2023-02-11T08:10:18.592Z,102438.94
2023-02-11T08:11:20.439Z,102435.34
2023-02-11T08:12:22.286Z,102443.06
2023-02-11T08:13:24.130Z,102436.27
2023-02-11T08:14:25.933Z,102426.96
2023-02-11T08:15:27.727Z,102431.44
2023-02-11T08:16:29.588Z,102435.77
2023-02-11T08:17:31.933Z,102429.95
2023-02-11T08:18:33.983Z,102421.36
2023-02-11T08:19:35.782Z,102430.83
2023-02-11T08:20:37.684Z,102423.22
2023-02-11T08:21:39.480Z,102419.09
2023-02-11T08:22:41.300Z,102426.00
2023-02-11T08:23:43.147Z,102424.23
2023-02-11T08:24:44.964Z,102426.91
2023-02-11T08:25:46.782Z,102424.45
2023-02-11T08:26:49.295Z,102429.70
2023-02-11T08:27:51.095Z,102430.47
2023-02-11T08:28:52.948Z,102432.94
2023-02-11T08:29:54.751Z,102433.86
2023-02-11T08:30:56.668Z,102422.66
2023-02-11T08:31:58.539Z,102431.48
2023-02-11T08:33:00.377Z,102429.23
2023-02-11T08:34:02.855Z,102428.62
2023-02-11T08:35:04.680Z,102421.92
2023-02-11T08:36:06.839Z,102428.05
2023-02-11T08:37:08.647Z,102426.36
2023-02-11T08:38:10.457Z,102428.16
2023-02-11T08:39:19.223Z,102424.23
2023-02-11T08:40:17.080Z,102428.56
2023-02-11T08:41:18.885Z,102424.44
2023-02-11T08:42:20.688Z,102421.05
2023-02-11T08:43:22.508Z,102416.82
2023-02-11T08:44:24.345Z,102418.58
2023-02-11T08:45:26.130Z,102411.77
2023-02-11T08:46:28.069Z,102411.67
2023-02-11T08:47:29.851Z,102403.95
2023-02-11T08:48:31.651Z,102411.67
2023-02-11T08:49:33.501Z,102408.28
2023-02-11T08:50:35.398Z,102404.94
2023-02-11T08:51:38.327Z,102403.34
2023-02-11T08:52:40.156Z,102396.73
2023-02-11T08:53:41.956Z,102396.73
2023-02-11T08:54:43.818Z,102398.60
2023-02-11T08:55:45.640Z,102396.84
2023-02-11T08:56:47.446Z,102396.84
2023-02-11T08:57:49.251Z,102390.98
2023-02-11T08:58:51.052Z,102399.72
2023-02-11T08:59:52.894Z,102399.81
2023-02-11T09:00:54.875Z,102399.91
2023-02-11T09:01:56.656Z,102399.91
2023-02-11T09:02:58.500Z,102400.80
2023-02-11T09:04:00.304Z,102394.77
2023-02-11T09:05:02.748Z,102395.65
2023-02-11T09:06:04.669Z,102399.10
2023-02-11T09:07:06.483Z,102400.02
2023-02-11T09:08:08.274Z,102395.65
2023-02-11T09:09:10.082Z,102392.20
2023-02-11T09:10:12.446Z,102392.09
2023-02-11T09:11:14.274Z,102385.16
2023-02-11T09:12:16.067Z,102382.58
2023-02-11T09:13:17.883Z,102383.56
2023-02-11T09:14:19.705Z,102380.11
2023-02-11T09:15:21.537Z,102378.51
2023-02-11T09:16:23.688Z,102376.07
2023-02-11T09:17:25.454Z,102374.38
2023-02-11T09:18:27.248Z,102376.07
2023-02-11T09:19:29.054Z,102375.25
2023-02-11T09:20:30.992Z,102371.02
2023-02-11T09:21:32.798Z,102372.68
2023-02-11T09:22:34.614Z,102373.59
2023-02-11T09:23:36.411Z,102373.49
2023-02-11T09:24:38.200Z,102371.70
2023-02-11T09:25:40.040Z,102369.23
2023-02-11T09:26:41.954Z,102372.78
2023-02-11T09:27:43.846Z,102369.42
2023-02-11T09:28:45.650Z,102371.22
2023-02-11T09:29:47.454Z,102365.16
2023-02-11T09:30:49.905Z,102361.90
2023-02-11T09:31:52.093Z,102357.62
2023-02-11T09:32:54.034Z,102352.48
2023-02-11T09:33:55.835Z,102359.33
2023-02-11T09:34:57.670Z,102360.20
2023-02-11T09:35:59.537Z,102348.15
2023-02-11T09:37:01.629Z,102348.15
2023-02-11T09:38:03.430Z,102349.81
2023-02-11T09:39:05.236Z,102356.66
2023-02-11T09:40:07.342Z,102350.62
2023-02-11T09:41:09.180Z,102353.98
2023-02-11T09:42:10.997Z,102349.61
2023-02-11T09:43:12.784Z,102355.48
2023-02-11T09:44:14.586Z,102351.30
2023-02-11T09:45:16.382Z,102352.28
2023-02-11T09:46:19.383Z,102348.83
2023-02-11T09:47:21.245Z,102350.72
2023-02-11T09:48:23.033Z,102347.33
2023-02-11T09:49:24.834Z,102349.03
2023-02-11T09:50:26.637Z,102347.43
2023-02-11T09:51:28.496Z,102343.20
2023-02-11T09:52:30.294Z,102343.39
2023-02-11T09:53:32.096Z,102341.60
2023-02-11T09:54:33.910Z,102339.02
2023-02-11T09:55:35.716Z,102342.38
2023-02-11T09:56:37.964Z,102338.92
2023-02-11T09:57:39.764Z,102329.41
2023-02-11T09:58:41.555Z,102332.70
2023-02-11T09:59:43.353Z,102331.00
2023-02-11T10:00:45.149Z,102330.12
2023-02-11T10:01:47.078Z,102332.70
2023-02-11T10:02:48.928Z,102332.70
2023-02-11T10:03:50.741Z,102331.11
2023-02-11T10:04:52.523Z,102326.73
2023-02-11T10:05:54.324Z,102331.89
2023-02-11T10:06:56.498Z,102335.37
2023-02-11T10:07:58.293Z,102328.53
2023-02-11T10:09:00.129Z,102326.05
2023-02-11T10:10:01.919Z,102320.12
2023-02-11T10:11:03.722Z,102322.80
2023-02-11T10:12:05.551Z,102318.42
2023-02-11T10:13:07.370Z,102315.85
2023-02-11T10:14:09.141Z,102310.61
2023-02-11T10:15:10.950Z,102310.61
2023-02-11T10:16:13.139Z,102317.45
2023-02-11T10:17:15.024Z,102313.08
2023-02-11T10:18:16.827Z,102307.84
2023-02-11T10:19:18.618Z,102310.51
2023-02-11T10:20:20.431Z,102304.58
2023-02-11T10:21:22.212Z,102304.58
2023-02-11T10:22:24.060Z,102306.34
2023-02-11T10:23:25.880Z,102309.11
2023-02-11T10:24:27.685Z,102309.11
2023-02-11T10:25:29.485Z,102311.68
2023-02-11T10:26:31.296Z,102308.42
2023-02-11T10:27:33.155Z,102302.39
2023-02-11T10:28:35.033Z,102311.09
2023-02-11T10:29:36.841Z,102308.52
2023-02-11T10:30:38.957Z,102308.52
2023-02-11T10:31:40.802Z,102302.59
2023-02-11T10:32:42.677Z,102304.44
2023-02-11T10:33:44.452Z,102304.67
2023-02-11T10:34:46.256Z,102302.97
2023-02-11T10:35:48.058Z,102298.70
2023-02-11T10:36:50.163Z,102296.22
2023-02-11T10:37:52.030Z,102296.32
2023-02-11T10:38:53.862Z,102290.58
2023-02-11T10:39:55.671Z,102289.80
2023-02-11T10:40:57.776Z,102288.88
2023-02-11T10:41:59.592Z,102281.16
2023-02-11T10:43:01.450Z,102276.91
2023-02-11T10:44:03.246Z,102284.83
2023-02-11T10:45:05.083Z,102278.08
2023-02-11T10:46:07.440Z,102281.53
2023-02-11T10:47:09.302Z,102278.17
2023-02-11T10:48:11.142Z,102277.30
2023-02-11T10:49:12.959Z,102276.28
2023-02-11T10:50:15.467Z,102276.28
2023-02-11T10:51:17.273Z,102271.23
2023-02-11T10:52:19.059Z,102262.62
2023-02-11T10:53:20.930Z,102263.50
2023-02-11T10:54:22.894Z,102260.14
2023-02-11T10:55:24.707Z,102264.60
2023-02-11T10:56:26.612Z,102268.94
2023-02-11T10:57:28.420Z,102260.33
2023-02-11T10:58:30.268Z,102253.48
2023-02-11T10:59:32.065Z,102262.12
2023-02-11T11:00:34.229Z,102256.06
2023-02-11T11:01:36.712Z,102245.75
2023-02-11T11:02:38.503Z,102248.45
2023-02-11T11:03:40.339Z,102238.16
2023-02-11T11:04:42.160Z,102238.25
2023-02-11T11:05:43.927Z,102232.38
2023-02-11T11:06:45.867Z,102226.44
2023-02-11T11:07:47.680Z,102228.22
2023-02-11T11:08:49.526Z,102223.07
2023-02-11T11:09:51.351Z,102226.53
2023-02-11T11:10:53.453Z,102223.16
2023-02-11T11:11:55.341Z,102226.80
2023-02-11T11:12:57.138Z,102224.41
2023-02-11T11:13:58.999Z,102218.56
2023-02-11T11:15:00.884Z,102219.53
2023-02-11T11:16:02.758Z,102217.05
2023-02-11T11:17:04.477Z,102218.75
2023-02-11T11:18:20.520Z,102213.59
2023-02-11T11:19:09.961Z,102217.84
2023-02-11T11:20:12.834Z,102208.53
2023-02-11T11:21:14.641Z,102200.11
2023-02-11T11:22:16.424Z,102211.38
2023-02-11T11:23:18.244Z,102200.38
2023-02-11T11:24:20.113Z,102197.98
2023-02-11T11:25:21.927Z,102197.25
2023-02-11T11:26:23.921Z,102195.59
2023-02-11T11:27:25.708Z,102191.48
2023-02-11T11:28:27.545Z,102192.55
2023-02-11T11:29:29.355Z,102189.19
2023-02-11T11:30:31.312Z,102191.94
2023-02-11T11:31:33.276Z,102193.81
2023-02-11T11:32:35.067Z,102190.54
2023-02-11T11:33:37.290Z,102190.63
2023-02-11T11:34:39.137Z,102192.56
2023-02-11T11:35:40.953Z,102185.00
2023-02-11T11:36:43.051Z,102186.80
2023-02-11T11:37:45.401Z,102183.25
2023-02-11T11:38:47.212Z,102181.46
2023-02-11T11:39:49.059Z,102175.52
2023-02-11T11:40:51.189Z,102182.60
2023-02-11T11:41:53.114Z,102178.45
2023-02-11T11:42:54.919Z,102178.53
2023-02-11T11:43:56.713Z,102181.11
2023-02-11T11:44:58.554Z,102185.57
2023-02-11T11:46:00.973Z,102175.25